createdAt,value
2022-12-31T00:01:46.967Z,25.52
2022-12-31T00:04:18.984Z,24.50
2022-12-31T00:06:50.935Z,26.63
2022-12-31T00:09:22.908Z,25.63
2022-12-31T00:11:54.805Z,24.65
2022-12-31T00:14:26.720Z,23.13
2022-12-31T00:16:58.723Z,24.52
2022-12-31T00:19:30.636Z,26.80
2022-12-31T00:22:02.550Z,25.25
2022-12-31T00:24:35.973Z,25.50
2022-12-31T00:27:07.961Z,21.08
2022-12-31T00:29:39.951Z,23.83
2022-12-31T00:32:14.031Z,26.95
2022-12-31T00:34:45.917Z,25.00
2022-12-31T00:37:17.879Z,27.90
2022-12-31T00:39:53.591Z,28.25
2022-12-31T00:42:25.647Z,24.45
2022-12-31T00:44:59.959Z,23.15
2022-12-31T00:47:34.671Z,24.55
2022-12-31T00:50:07.082Z,25.90
2022-12-31T00:52:39.001Z,23.00
2022-12-31T00:55:10.964Z,26.67
2022-12-31T00:57:42.839Z,22.33
2022-12-31T01:00:15.680Z,22.58
2022-12-31T01:02:47.786Z,20.33
2022-12-31T01:05:19.818Z,22.35
2022-12-31T01:07:51.785Z,20.77
2022-12-31T01:10:42.179Z,22.30
2022-12-31T01:13:14.330Z,24.65
2022-12-31T01:15:46.448Z,26.38
2022-12-31T01:18:18.489Z,23.73
2022-12-31T01:20:50.509Z,24.60
2022-12-31T01:23:22.456Z,25.30
2022-12-31T01:25:54.348Z,22.27
2022-12-31T01:28:29.663Z,23.60
2022-12-31T01:31:14.912Z,22.52
2022-12-31T01:33:47.619Z,22.85
2022-12-31T01:36:26.000Z,25.88
2022-12-31T01:39:01.001Z,23.23
2022-12-31T01:41:44.649Z,22.65
2022-12-31T01:44:25.492Z,23.27
2022-12-31T01:47:01.077Z,20.38
2022-12-31T01:49:42.860Z,23.33
2022-12-31T01:52:45.446Z,22.45
2022-12-31T01:55:44.928Z,23.70
2022-12-31T01:58:27.775Z,22.15
2022-12-31T02:01:00.161Z,21.30
2022-12-31T02:03:32.259Z,25.55
2022-12-31T02:06:14.671Z,26.88
2022-12-31T02:08:46.672Z,25.20
2022-12-31T02:11:38.859Z,24.17
2022-12-31T02:14:36.025Z,23.67
2022-12-31T02:17:37.872Z,24.88
2022-12-31T02:22:56.250Z,24.67
2022-12-31T02:25:56.800Z,24.45
2022-12-31T02:28:47.100Z,23.27
2022-12-31T02:31:25.412Z,25.48
2022-12-31T02:34:13.759Z,26.70
2022-12-31T02:36:47.985Z,24.52
2022-12-31T02:39:20.368Z,22.02
2022-12-31T02:41:52.811Z,23.10
2022-12-31T02:44:35.854Z,22.52
2022-12-31T02:47:28.798Z,27.75
2022-12-31T02:50:22.539Z,24.83
2022-12-31T02:53:18.226Z,23.48
2022-12-31T02:55:50.167Z,25.05
2022-12-31T02:58:55.694Z,24.13
2022-12-31T03:01:55.403Z,26.50
2022-12-31T03:04:32.537Z,22.77
2022-12-31T03:07:10.747Z,26.55
2022-12-31T03:09:42.696Z,26.23
2022-12-31T03:12:33.941Z,26.65
2022-12-31T03:15:19.871Z,26.27
2022-12-31T03:18:00.117Z,25.63
2022-12-31T03:20:52.716Z,26.80
2022-12-31T03:23:37.456Z,26.48
2022-12-31T03:26:11.101Z,29.38
2022-12-31T03:28:47.982Z,25.92
2022-12-31T03:31:20.176Z,28.17
2022-12-31T03:33:52.127Z,25.13
2022-12-31T03:36:24.060Z,27.45
2022-12-31T03:38:55.990Z,26.52
2022-12-31T03:41:27.940Z,26.17
2022-12-31T03:43:59.843Z,27.00
2022-12-31T03:46:31.829Z,25.98
2022-12-31T03:49:03.693Z,25.48
2022-12-31T03:51:35.613Z,30.88
2022-12-31T03:54:07.503Z,30.58
2022-12-31T03:56:39.359Z,30.38
2022-12-31T03:59:11.466Z,32.92
2022-12-31T04:01:43.445Z,34.30
2022-12-31T04:04:15.463Z,36.58
2022-12-31T04:06:47.359Z,34.97
2022-12-31T04:09:19.338Z,40.40
2022-12-31T04:11:51.733Z,35.38
2022-12-31T04:14:23.703Z,35.47
2022-12-31T04:16:55.622Z,37.75
2022-12-31T04:19:27.548Z,41.97
2022-12-31T04:21:59.491Z,34.55
2022-12-31T04:24:31.482Z,38.08
2022-12-31T04:27:07.579Z,36.03
2022-12-31T04:29:40.166Z,37.95
2022-12-31T04:32:17.991Z,37.50
2022-12-31T04:34:53.028Z,38.53
2022-12-31T04:37:24.960Z,36.30
2022-12-31T04:40:01.891Z,32.65
2022-12-31T04:42:37.708Z,34.92
2022-12-31T04:45:10.080Z,36.08
2022-12-31T04:47:42.083Z,29.30
2022-12-31T04:50:14.108Z,27.95
2022-12-31T04:52:46.065Z,27.55
2022-12-31T04:55:18.074Z,22.98
2022-12-31T04:57:50.114Z,24.10
2022-12-31T05:00:23.145Z,25.77
2022-12-31T05:02:55.052Z,30.25
2022-12-31T05:05:26.985Z,26.33
2022-12-31T05:07:58.959Z,28.48
2022-12-31T05:10:30.952Z,25.13
2022-12-31T05:13:02.887Z,21.58
2022-12-31T05:15:35.106Z,21.58
2022-12-31T05:18:07.420Z,19.85
2022-12-31T05:20:39.490Z,19.23
2022-12-31T05:23:11.815Z,19.05
2022-12-31T05:25:45.345Z,22.35
2022-12-31T05:28:17.960Z,24.30
2022-12-31T05:30:50.815Z,22.45
2022-12-31T05:33:23.198Z,21.15
2022-12-31T05:35:57.922Z,21.85
2022-12-31T05:38:30.014Z,21.17
2022-12-31T05:41:04.420Z,23.40
2022-12-31T05:43:36.526Z,23.67
2022-12-31T05:46:08.907Z,22.00
2022-12-31T05:48:40.938Z,20.90
2022-12-31T05:51:12.887Z,20.77
2022-12-31T05:53:44.953Z,24.65
2022-12-31T05:56:17.901Z,21.60
2022-12-31T05:58:49.904Z,20.88
2022-12-31T06:01:22.079Z,21.65
2022-12-31T06:03:54.049Z,22.20
2022-12-31T06:06:26.227Z,24.13
2022-12-31T06:08:58.178Z,24.42
2022-12-31T06:11:30.082Z,24.08
2022-12-31T06:14:02.298Z,26.35
2022-12-31T06:16:34.491Z,29.40
2022-12-31T06:19:06.879Z,24.98
2022-12-31T06:21:38.862Z,25.25
2022-12-31T06:24:10.772Z,20.92
2022-12-31T06:26:42.774Z,24.48
2022-12-31T06:29:14.838Z,22.70
2022-12-31T06:31:46.754Z,25.83
2022-12-31T06:34:18.803Z,25.88
2022-12-31T06:36:50.712Z,26.95
2022-12-31T06:39:22.840Z,25.50
2022-12-31T06:41:54.955Z,27.75
2022-12-31T06:44:26.939Z,30.25
2022-12-31T06:46:58.878Z,30.00
2022-12-31T06:49:30.798Z,30.58
2022-12-31T06:52:02.719Z,26.90
2022-12-31T06:54:34.863Z,23.95
2022-12-31T06:57:08.815Z,24.60
2022-12-31T06:59:41.041Z,25.83
2022-12-31T07:02:27.609Z,27.15
2022-12-31T07:05:12.148Z,29.65
2022-12-31T07:07:54.757Z,27.80
2022-12-31T07:10:30.368Z,28.80
2022-12-31T07:13:15.651Z,29.33
2022-12-31T07:16:00.095Z,26.58
2022-12-31T07:18:44.279Z,30.92
2022-12-31T07:21:19.551Z,26.95
2022-12-31T07:23:51.785Z,30.60
2022-12-31T07:26:57.285Z,31.63
2022-12-31T07:29:50.687Z,30.63
2022-12-31T07:32:45.579Z,29.38
2022-12-31T07:35:31.295Z,28.83
2022-12-31T07:38:26.802Z,29.98
2022-12-31T07:41:10.416Z,30.25
2022-12-31T07:44:12.690Z,33.22
2022-12-31T07:46:59.389Z,26.25
2022-12-31T07:49:34.252Z,23.58
2022-12-31T07:52:07.554Z,52.33
2022-12-31T07:54:39.460Z,25.95
2022-12-31T07:57:13.462Z,24.88
2022-12-31T08:00:02.339Z,31.85
2022-12-31T08:03:03.158Z,27.52
2022-12-31T08:06:12.568Z,25.20
2022-12-31T08:09:03.350Z,26.77
2022-12-31T08:11:43.307Z,27.10
2022-12-31T08:14:15.606Z,25.10
2022-12-31T08:16:48.443Z,22.20
2022-12-31T08:19:30.536Z,21.75
2022-12-31T08:22:23.801Z,22.45
2022-12-31T08:25:19.777Z,25.00
2022-12-31T08:28:20.046Z,20.95
2022-12-31T08:31:00.992Z,22.85
2022-12-31T08:33:48.333Z,24.10
2022-12-31T08:36:30.950Z,22.58
2022-12-31T08:39:22.060Z,24.25
2022-12-31T08:41:58.090Z,25.48
2022-12-31T08:45:17.914Z,26.33
2022-12-31T08:48:15.088Z,21.05
2022-12-31T08:50:47.158Z,24.45
2022-12-31T08:53:19.312Z,23.88
2022-12-31T08:56:00.857Z,20.85
2022-12-31T09:01:28.190Z,25.65
2022-12-31T09:04:33.819Z,20.42
2022-12-31T09:07:07.615Z,18.42
2022-12-31T09:09:50.910Z,25.33
2022-12-31T09:12:32.196Z,22.58
2022-12-31T09:15:48.888Z,23.90
2022-12-31T09:18:21.199Z,24.95
2022-12-31T09:20:53.392Z,28.88
2022-12-31T09:23:25.576Z,23.30
2022-12-31T09:26:25.072Z,21.42
2022-12-31T09:29:17.616Z,22.65
2022-12-31T09:32:07.419Z,24.30
2022-12-31T09:34:45.332Z,26.05
2022-12-31T09:37:38.068Z,21.02
2022-12-31T09:40:33.432Z,23.20
2022-12-31T09:43:59.014Z,20.30
2022-12-31T09:46:53.279Z,23.95
2022-12-31T09:50:05.568Z,22.90
2022-12-31T09:53:06.370Z,22.67
2022-12-31T09:55:48.456Z,25.40
2022-12-31T09:58:38.843Z,22.90
2022-12-31T10:01:19.733Z,22.98
2022-12-31T10:04:15.943Z,22.33
2022-12-31T10:07:27.905Z,25.77
2022-12-31T10:10:26.498Z,22.73
2022-12-31T10:12:58.439Z,27.15
2022-12-31T10:16:09.917Z,20.98
2022-12-31T10:19:12.817Z,20.38
2022-12-31T10:21:59.314Z,23.05
2022-12-31T10:24:39.226Z,20.88
2022-12-31T10:27:21.319Z,21.20
2022-12-31T10:30:02.856Z,21.70
2022-12-31T10:35:42.837Z,22.55
2022-12-31T10:38:41.930Z,17.15
2022-12-31T10:41:56.107Z,15.77
2022-12-31T10:44:46.098Z,16.83
2022-12-31T10:47:28.826Z,16.60
2022-12-31T10:50:31.585Z,16.73
2022-12-31T10:53:06.585Z,18.90
2022-12-31T10:55:50.836Z,19.27
2022-12-31T10:58:53.490Z,17.55
2022-12-31T11:01:33.824Z,22.10
2022-12-31T11:04:28.775Z,21.92
2022-12-31T11:07:18.466Z,21.77
2022-12-31T11:09:58.947Z,20.60
2022-12-31T11:12:49.669Z,21.08
2022-12-31T11:15:23.208Z,21.17
2022-12-31T11:18:20.305Z,19.38
2022-12-31T11:21:03.236Z,18.35
2022-12-31T11:23:44.501Z,18.48
2022-12-31T11:26:22.195Z,21.60
2022-12-31T11:29:09.696Z,21.02
2022-12-31T11:31:54.818Z,18.98
2022-12-31T11:34:38.939Z,19.27
2022-12-31T11:37:31.869Z,22.10
2022-12-31T11:40:31.476Z,20.65
2022-12-31T11:43:29.890Z,23.25
2022-12-31T11:46:14.060Z,20.90
2022-12-31T11:48:46.218Z,29.73
2022-12-31T11:51:42.108Z,27.08
2022-12-31T11:54:46.557Z,29.92
2022-12-31T11:57:33.979Z,22.33
2022-12-31T12:00:20.874Z,26.75
2022-12-31T12:02:59.158Z,25.25
2022-12-31T12:05:33.510Z,23.75
2022-12-31T12:08:06.377Z,19.65
2022-12-31T12:10:58.092Z,23.15
2022-12-31T12:13:30.080Z,24.08
2022-12-31T12:16:06.226Z,21.35
2022-12-31T12:18:50.930Z,23.13
2022-12-31T12:21:25.466Z,21.50
2022-12-31T12:24:01.430Z,26.75
2022-12-31T12:26:35.855Z,33.92
2022-12-31T12:29:15.326Z,22.88
2022-12-31T12:32:02.221Z,23.88
2022-12-31T12:34:41.964Z,24.70
2022-12-31T12:37:35.454Z,46.88
2022-12-31T12:40:33.632Z,45.58
2022-12-31T12:43:23.643Z,24.90
2022-12-31T12:46:00.701Z,50.50
2022-12-31T12:48:42.753Z,28.73
2022-12-31T12:51:17.474Z,26.85
2022-12-31T12:53:49.464Z,28.48
2022-12-31T12:56:36.139Z,24.15
2022-12-31T12:59:29.818Z,22.02
2022-12-31T13:02:26.619Z,24.92
2022-12-31T13:05:20.497Z,28.85
2022-12-31T13:08:23.351Z,27.10
2022-12-31T13:11:17.728Z,21.35
2022-12-31T13:14:01.560Z,19.85
2022-12-31T13:17:23.788Z,22.92
2022-12-31T13:20:07.275Z,27.55
2022-12-31T13:22:47.904Z,23.27
2022-12-31T13:25:25.930Z,26.27
2022-12-31T13:28:04.020Z,25.65
2022-12-31T13:30:43.050Z,26.70
2022-12-31T13:33:41.057Z,23.63
2022-12-31T13:36:23.434Z,25.88
2022-12-31T13:39:00.840Z,24.00
2022-12-31T13:41:53.036Z,26.83
2022-12-31T13:44:30.870Z,26.58
2022-12-31T13:47:08.988Z,24.63
2022-12-31T13:49:48.390Z,24.27
2022-12-31T13:52:41.236Z,23.98
2022-12-31T13:55:37.135Z,26.77
2022-12-31T13:58:28.528Z,27.85
2022-12-31T14:01:18.925Z,22.60
2022-12-31T14:04:10.369Z,29.17
2022-12-31T14:07:00.132Z,23.52
2022-12-31T14:09:34.743Z,25.00
2022-12-31T14:12:23.920Z,25.17
2022-12-31T14:15:18.270Z,25.13
2022-12-31T14:18:05.086Z,52.05
2022-12-31T14:20:57.279Z,42.80
2022-12-31T14:23:48.013Z,28.98
2022-12-31T14:26:27.636Z,24.57
2022-12-31T14:29:12.113Z,25.15
2022-12-31T14:31:50.170Z,26.48
2022-12-31T14:34:47.578Z,33.65
2022-12-31T14:38:00.521Z,33.97
2022-12-31T14:40:44.902Z,30.88
2022-12-31T14:43:25.827Z,31.75
2022-12-31T14:46:10.524Z,32.72
2022-12-31T14:49:01.759Z,31.17
2022-12-31T14:51:37.123Z,32.70
2022-12-31T14:54:39.789Z,34.13
2022-12-31T14:57:24.422Z,30.60
2022-12-31T15:00:01.902Z,34.70
2022-12-31T15:02:35.428Z,36.35
2022-12-31T15:05:10.744Z,30.33
2022-12-31T15:07:48.919Z,37.05
2022-12-31T15:10:36.177Z,32.13
2022-12-31T15:13:17.241Z,36.13
2022-12-31T15:15:58.818Z,32.83
2022-12-31T15:18:44.926Z,31.52
2022-12-31T15:21:53.163Z,35.85
2022-12-31T15:24:28.035Z,39.90
2022-12-31T15:27:06.165Z,36.08
2022-12-31T15:29:45.362Z,32.92
2022-12-31T15:32:27.188Z,40.90
2022-12-31T15:35:26.920Z,38.47
2022-12-31T15:38:01.995Z,39.03
2022-12-31T15:40:46.977Z,35.72
2022-12-31T15:43:25.031Z,36.17
2022-12-31T15:45:58.366Z,37.65
2022-12-31T15:48:55.437Z,36.58
2022-12-31T15:51:56.177Z,39.78
2022-12-31T15:54:37.491Z,38.70
2022-12-31T15:57:29.205Z,39.13
2022-12-31T16:00:05.549Z,38.97
2022-12-31T16:02:43.111Z,40.25
2022-12-31T16:05:24.465Z,42.60
2022-12-31T16:07:59.274Z,40.00
2022-12-31T16:10:32.637Z,40.80
2022-12-31T16:13:06.218Z,38.90
2022-12-31T16:15:38.943Z,39.80
2022-12-31T16:18:20.598Z,39.85
2022-12-31T16:20:54.895Z,40.20
2022-12-31T16:23:28.040Z,38.35
2022-12-31T16:26:02.159Z,36.47
2022-12-31T16:28:34.427Z,39.15
2022-12-31T16:31:08.040Z,35.03
2022-12-31T16:33:40.073Z,40.97
2022-12-31T16:36:23.441Z,38.25
2022-12-31T16:39:26.082Z,39.10
2022-12-31T16:42:09.800Z,40.75
2022-12-31T16:44:42.180Z,40.15
2022-12-31T16:47:20.151Z,39.60
2022-12-31T16:50:04.096Z,38.75
2022-12-31T16:52:39.251Z,43.17
2022-12-31T16:55:23.390Z,41.67
2022-12-31T16:58:06.874Z,48.35
2022-12-31T17:00:39.286Z,57.08
2022-12-31T17:03:24.003Z,47.13
2022-12-31T17:06:09.545Z,44.58
2022-12-31T17:08:43.336Z,48.05
2022-12-31T17:11:48.225Z,43.83
2022-12-31T17:14:23.282Z,43.47
2022-12-31T17:17:02.605Z,45.88
2022-12-31T17:19:35.778Z,46.38
2022-12-31T17:22:32.854Z,45.50
2022-12-31T17:25:20.333Z,51.80
2022-12-31T17:28:07.212Z,50.20
2022-12-31T17:30:40.336Z,47.15
2022-12-31T17:33:12.280Z,42.20
2022-12-31T17:35:45.172Z,45.72
2022-12-31T17:38:25.609Z,53.60
2022-12-31T17:41:06.291Z,54.97
2022-12-31T17:43:39.438Z,52.83
2022-12-31T17:46:14.945Z,50.90
2022-12-31T17:48:52.427Z,45.33
2022-12-31T17:51:24.856Z,46.55
2022-12-31T17:53:58.624Z,43.92
2022-12-31T17:56:30.600Z,43.08
2022-12-31T17:59:06.612Z,46.85
2022-12-31T18:01:38.783Z,51.40
2022-12-31T18:04:19.100Z,44.40
2022-12-31T18:06:51.125Z,47.90
2022-12-31T18:09:23.187Z,45.10
2022-12-31T18:11:58.283Z,47.55
2022-12-31T18:14:33.805Z,52.92
2022-12-31T18:17:09.671Z,49.58
2022-12-31T18:20:07.067Z,50.08
2022-12-31T18:22:34.212Z,46.03
2022-12-31T18:25:07.344Z,56.25
2022-12-31T18:27:41.993Z,49.55
2022-12-31T18:30:16.502Z,47.90
2022-12-31T18:32:48.659Z,47.65
2022-12-31T18:38:16.963Z,47.65
2022-12-31T18:40:58.231Z,42.25
2022-12-31T18:43:30.147Z,42.92
2022-12-31T18:46:02.145Z,41.60
2022-12-31T18:48:34.123Z,45.42
2022-12-31T18:51:06.145Z,47.15
2022-12-31T18:53:38.082Z,81.93
2022-12-31T18:56:16.125Z,55.17
2022-12-31T18:58:48.307Z,44.63
2022-12-31T19:01:34.880Z,44.78
2022-12-31T19:04:28.014Z,45.90
2022-12-31T19:07:00.500Z,49.50
2022-12-31T19:09:51.391Z,46.42
2022-12-31T19:12:24.590Z,47.60
2022-12-31T19:14:56.563Z,49.22
2022-12-31T19:17:28.451Z,51.58
2022-12-31T19:20:04.453Z,61.25
2022-12-31T19:22:36.332Z,61.67
2022-12-31T19:25:23.813Z,56.90
2022-12-31T19:27:55.849Z,54.25
2022-12-31T19:30:32.988Z,56.25
2022-12-31T19:33:04.972Z,57.85
2022-12-31T19:35:38.528Z,53.13
2022-12-31T19:38:23.094Z,54.50
2022-12-31T19:40:55.553Z,49.40
2022-12-31T19:43:27.717Z,49.58
2022-12-31T19:46:03.727Z,44.03
2022-12-31T19:48:36.213Z,48.78
2022-12-31T19:51:14.993Z,80.60
2022-12-31T19:53:48.454Z,64.25
2022-12-31T19:56:20.607Z,66.40
2022-12-31T19:58:52.534Z,60.60
2022-12-31T20:01:25.479Z,54.25
2022-12-31T20:03:57.568Z,49.30
2022-12-31T20:06:29.519Z,44.35
2022-12-31T20:09:03.375Z,42.47
2022-12-31T20:11:54.389Z,48.17
2022-12-31T20:14:26.448Z,73.57
2022-12-31T20:16:58.657Z,47.80
2022-12-31T20:19:30.799Z,48.03
2022-12-31T20:22:02.991Z,48.45
2022-12-31T20:24:34.901Z,48.75
2022-12-31T20:27:10.985Z,46.67
2022-12-31T20:29:46.943Z,42.40
2022-12-31T20:32:19.032Z,43.13
2022-12-31T20:34:51.050Z,43.60
2022-12-31T20:37:23.075Z,41.42
2022-12-31T20:39:54.980Z,48.75
2022-12-31T20:42:27.033Z,48.50
2022-12-31T20:44:59.005Z,46.17
2022-12-31T20:47:30.929Z,43.20
2022-12-31T20:50:12.024Z,46.58
2022-12-31T20:52:44.688Z,53.65
2022-12-31T20:55:18.172Z,53.05
2022-12-31T20:57:50.160Z,47.08
2022-12-31T21:00:22.207Z,56.90
2022-12-31T21:03:04.918Z,53.80
2022-12-31T21:05:48.020Z,49.38
2022-12-31T21:08:20.880Z,51.25
2022-12-31T21:10:52.908Z,53.15
2022-12-31T21:13:25.135Z,52.95
2022-12-31T21:15:57.096Z,54.47
2022-12-31T21:18:29.065Z,50.30
2022-12-31T21:21:01.408Z,52.83
2022-12-31T21:23:33.462Z,57.45
2022-12-31T21:26:05.845Z,56.20
2022-12-31T21:28:37.816Z,52.25
2022-12-31T21:31:12.976Z,53.80
2022-12-31T21:33:47.105Z,62.70
2022-12-31T21:36:19.151Z,60.38
2022-12-31T21:38:51.192Z,67.45
2022-12-31T21:41:41.720Z,60.80
2022-12-31T21:44:13.758Z,63.85
2022-12-31T21:47:15.788Z,56.67
2022-12-31T21:49:37.798Z,56.90
2022-12-31T21:52:28.550Z,72.20
2022-12-31T21:55:20.988Z,64.97
2022-12-31T21:58:25.190Z,59.80
2022-12-31T22:01:03.918Z,52.67
2022-12-31T22:03:35.971Z,56.00
2022-12-31T22:06:16.294Z,60.08
2022-12-31T22:08:54.379Z,61.03
2022-12-31T22:11:28.082Z,57.85
2022-12-31T22:14:00.047Z,61.97
2022-12-31T22:16:32.058Z,63.75
2022-12-31T22:19:04.191Z,70.30
2022-12-31T22:21:36.183Z,71.72
2022-12-31T22:24:08.820Z,64.30
2022-12-31T22:26:46.412Z,66.28
2022-12-31T22:29:19.839Z,57.90
2022-12-31T22:31:54.509Z,51.53
2022-12-31T22:34:29.979Z,48.22
2022-12-31T22:37:14.391Z,44.30
2022-12-31T22:39:53.859Z,42.97
2022-12-31T22:42:25.815Z,49.85
2022-12-31T22:44:57.730Z,43.30
2022-12-31T22:47:29.617Z,44.50
2022-12-31T22:50:01.597Z,43.78
2022-12-31T22:52:33.549Z,41.70
2022-12-31T22:55:05.954Z,38.83
2022-12-31T22:57:37.966Z,41.28
2022-12-31T23:00:13.739Z,43.78
2022-12-31T23:02:46.254Z,55.88
2022-12-31T23:05:18.193Z,309.02
2022-12-31T23:07:50.115Z,198.30
2022-12-31T23:10:40.504Z,171.65
2022-12-31T23:13:31.369Z,245.35
2022-12-31T23:16:22.239Z,328.27
2022-12-31T23:19:12.678Z,312.75
2022-12-31T23:22:03.499Z,101.35
2022-12-31T23:24:35.532Z,172.88
2022-12-31T23:27:08.553Z,224.57
2022-12-31T23:29:46.718Z,129.60
2022-12-31T23:32:19.870Z,131.88
2022-12-31T23:34:53.441Z,115.72
2022-12-31T23:37:25.399Z,120.07
2022-12-31T23:39:57.422Z,118.85
2022-12-31T23:42:29.336Z,118.20
2022-12-31T23:45:01.344Z,113.15
2022-12-31T23:47:33.272Z,116.05
2022-12-31T23:50:06.220Z,116.97
2022-12-31T23:52:38.202Z,123.32
2022-12-31T23:55:10.144Z,114.05
2022-12-31T23:57:42.032Z,99.35
